Time;durP1;ratioP1;P1;durP2;ratioP2;P2;SDS_P1;SDS_P2;PMS_P1;PMS_P2;Temp;Humidity;BMP_temperature;BMP_pressure;BME280_temperature;BME280_humidity;BME280_pressure;Samples;Min_cycle;Max_cycle;Signal;HPM_P1;HPM_P2
2022/01/11 00:01:41;;;;;;;;;;;23.20;51.80;;;;;;5077939;28;1019;-38
2022/01/11 00:04:08;;;;;;;;;;;23.30;51.50;;;;;;5078154;28;965;-36
2022/01/11 00:06:41;;;;;;;;;;;23.30;51.60;;;;;;5078329;28;952;-36
2022/01/11 00:09:19;;;;;;;;;;;23.30;51.60;;;;;;5077833;28;891;-37
2022/01/11 00:11:46;;;;;;;;;;;23.30;51.60;;;;;;5077939;28;1040;-36
2022/01/11 00:14:12;;;;;;;;;;;23.30;51.70;;;;;;5077687;28;1007;-36
2022/01/11 00:16:39;;;;;;;;;;;23.30;51.70;;;;;;5077362;28;1007;-36
2022/01/11 00:19:06;;;;;;;;;;;23.30;51.70;;;;;;5077365;28;1898;-36
2022/01/11 00:21:33;;;;;;;;;;;23.30;51.70;;;;;;5077897;28;997;-38
2022/01/11 00:26:46;;;;;;;;;;;23.20;51.70;;;;;;5077241;28;979;-36
2022/01/11 00:29:13;;;;;;;;;;;23.10;51.90;;;;;;5077237;28;935;-38
2022/01/11 00:31:40;;;;;;;;;;;23.10;51.70;;;;;;5078127;28;1066;-38
2022/01/11 00:34:08;;;;;;;;;;;23.20;51.80;;;;;;5077649;28;928;-36
2022/01/11 00:36:42;;;;;;;;;;;23.10;51.90;;;;;;5077791;28;943;-37
2022/01/11 00:39:10;;;;;;;;;;;23.10;52.00;;;;;;5077085;28;1973;-37
2022/01/11 00:41:37;;;;;;;;;;;23.10;52.00;;;;;;5080451;28;1000;-36
2022/01/11 00:44:05;;;;;;;;;;;23.10;52.60;;;;;;5080811;28;1003;-36
2022/01/11 00:46:31;;;;;;;;;;;23.10;52.10;;;;;;5081523;28;936;-36
2022/01/11 00:48:58;;;;;;;;;;;23.10;52.10;;;;;;5081347;28;1012;-37
2022/01/11 00:51:25;;;;;;;;;;;23.10;52.10;;;;;;5080627;28;1038;-36
2022/01/11 00:53:52;;;;;;;;;;;23.10;52.00;;;;;;5081296;28;939;-37
2022/01/11 00:56:20;;;;;;;;;;;23.10;51.90;;;;;;5080975;28;893;-38
2022/01/11 00:58:47;;;;;;;;;;;23.10;52.00;;;;;;5080453;28;1898;-36
2022/01/11 01:01:14;;;;;;;;;;;23.10;52.00;;;;;;5080414;28;990;-37
2022/01/11 01:03:40;;;;;;;;;;;23.10;52.00;;;;;;5080609;28;1023;-36
2022/01/11 01:06:07;;;;;;;;;;;23.10;51.90;;;;;;5080094;28;904;-36
2022/01/11 01:08:34;;;;;;;;;;;23.10;52.00;;;;;;5080272;28;1634;-36
2022/01/11 01:11:01;;;;;;;;;;;23.10;51.90;;;;;;5080146;28;986;-36
2022/01/11 01:13:29;;;;;;;;;;;23.00;52.10;;;;;;5080301;28;935;-38
2022/01/11 01:15:57;;;;;;;;;;;23.00;52.00;;;;;;5080736;28;941;-37
2022/01/11 01:18:25;;;;;;;;;;;23.00;51.90;;;;;;5080157;28;1978;-37
2022/01/11 01:20:52;;;;;;;;;;;23.10;51.90;;;;;;5080077;28;987;-35
2022/01/11 01:23:19;;;;;;;;;;;23.00;52.00;;;;;;5080351;28;848;-36
2022/01/11 01:25:47;;;;;;;;;;;23.00;52.10;;;;;;5079462;28;1008;-37
2022/01/11 01:28:14;;;;;;;;;;;22.90;52.00;;;;;;5080043;28;1019;-36
2022/01/11 01:30:42;;;;;;;;;;;22.90;52.00;;;;;;5080255;28;995;-37
2022/01/11 01:33:09;;;;;;;;;;;22.90;52.10;;;;;;5080205;28;967;-36
2022/01/11 01:35:39;;;;;;;;;;;22.90;52.00;;;;;;5079980;28;933;-37
2022/01/11 01:38:07;;;;;;;;;;;22.90;52.20;;;;;;5079520;28;1906;-36
2022/01/11 01:40:39;;;;;;;;;;;22.90;52.10;;;;;;5079821;28;1526;-37
2022/01/11 01:43:08;;;;;;;;;;;22.90;52.10;;;;;;5079553;28;989;-37
2022/01/11 01:45:35;;;;;;;;;;;22.90;52.10;;;;;;5079693;28;965;-36
2022/01/11 01:48:03;;;;;;;;;;;22.90;52.10;;;;;;5080140;28;1865;-36
2022/01/11 01:50:31;;;;;;;;;;;22.90;52.00;;;;;;5080068;28;1023;-36
2022/01/11 01:52:59;;;;;;;;;;;22.90;52.00;;;;;;5078922;28;980;-36
2022/01/11 01:55:26;;;;;;;;;;;22.90;52.00;;;;;;5080186;28;931;-36
2022/01/11 01:57:52;;;;;;;;;;;22.90;52.00;;;;;;5079880;28;941;-38
2022/01/11 02:00:20;;;;;;;;;;;22.90;52.00;;;;;;5079602;28;1901;-36
2022/01/11 02:02:47;;;;;;;;;;;22.90;51.90;;;;;;5079962;28;1031;-38
2022/01/11 02:05:15;;;;;;;;;;;22.90;51.90;;;;;;5079492;28;865;-36
2022/01/11 02:07:41;;;;;;;;;;;23.00;51.90;;;;;;5079533;28;943;-37
2022/01/11 02:10:09;;;;;;;;;;;23.00;51.90;;;;;;5079225;28;1002;-36
2022/01/11 02:12:35;;;;;;;;;;;22.90;51.80;;;;;;5079392;28;968;-37
2022/01/11 02:15:02;;;;;;;;;;;23.00;51.90;;;;;;5079722;28;981;-36
2022/01/11 02:17:29;;;;;;;;;;;22.90;51.80;;;;;;5079910;28;963;-39
2022/01/11 02:19:56;;;;;;;;;;;22.90;51.80;;;;;;5078778;28;1907;-37
2022/01/11 02:22:25;;;;;;;;;;;22.90;51.80;;;;;;5079561;28;985;-37
2022/01/11 02:24:52;;;;;;;;;;;22.90;51.80;;;;;;5079479;28;1034;-37
2022/01/11 02:27:19;;;;;;;;;;;22.90;51.90;;;;;;5079448;28;1023;-36
2022/01/11 02:29:46;;;;;;;;;;;22.90;52.00;;;;;;5079144;28;955;-36
2022/01/11 02:32:12;;;;;;;;;;;22.90;51.80;;;;;;5078997;28;1019;-36
2022/01/11 02:34:39;;;;;;;;;;;22.90;52.00;;;;;;5079059;28;885;-36
2022/01/11 02:37:06;;;;;;;;;;;22.90;52.00;;;;;;5078682;28;1160;-36
2022/01/11 02:39:35;;;;;;;;;;;22.90;52.00;;;;;;5077993;28;1922;-36
2022/01/11 02:42:02;;;;;;;;;;;22.90;52.00;;;;;;5078701;28;1015;-36
2022/01/11 02:44:29;;;;;;;;;;;22.90;51.90;;;;;;5078367;28;1021;-36
2022/01/11 02:46:56;;;;;;;;;;;22.90;52.00;;;;;;5078968;28;996;-38
2022/01/11 02:49:22;;;;;;;;;;;22.90;52.00;;;;;;5078615;28;915;-36
2022/01/11 02:51:49;;;;;;;;;;;22.90;51.90;;;;;;5078582;28;964;-38
2022/01/11 02:54:16;;;;;;;;;;;22.90;52.00;;;;;;5078546;28;922;-37
2022/01/11 02:56:44;;;;;;;;;;;22.90;51.90;;;;;;5078425;28;1010;-38
2022/01/11 02:59:11;;;;;;;;;;;22.90;51.90;;;;;;5078349;28;1988;-36
2022/01/11 03:01:38;;;;;;;;;;;22.90;51.90;;;;;;5078583;28;997;-36
2022/01/11 03:04:05;;;;;;;;;;;22.90;51.80;;;;;;5077537;28;939;-37
2022/01/11 03:06:32;;;;;;;;;;;22.90;51.80;;;;;;5078052;28;978;-36
2022/01/11 03:08:58;;;;;;;;;;;23.00;51.80;;;;;;5078134;28;988;-36
2022/01/11 03:11:31;;;;;;;;;;;23.00;51.70;;;;;;5078020;28;972;-36
2022/01/11 03:14:00;;;;;;;;;;;23.00;51.70;;;;;;5078624;28;920;-38
2022/01/11 03:16:26;;;;;;;;;;;23.00;51.80;;;;;;5078731;28;994;-37
2022/01/11 03:18:53;;;;;;;;;;;23.00;51.70;;;;;;5077876;28;1898;-37
2022/01/11 03:21:20;;;;;;;;;;;23.00;51.60;;;;;;5078605;28;951;-36
2022/01/11 03:23:47;;;;;;;;;;;23.00;51.60;;;;;;5078255;28;896;-36
2022/01/11 03:26:14;;;;;;;;;;;23.00;51.60;;;;;;5078474;28;1027;-37
2022/01/11 03:31:45;;;;;;;;;;;23.00;51.60;;;;;;5077878;28;1034;-36
2022/01/11 03:34:17;;;;;;;;;;;23.00;51.50;;;;;;5078472;28;999;-36
2022/01/11 03:36:44;;;;;;;;;;;23.00;51.70;;;;;;5078085;28;961;-37
2022/01/11 03:39:11;;;;;;;;;;;23.00;51.70;;;;;;5077975;28;1886;-36
2022/01/11 03:41:37;;;;;;;;;;;23.00;51.70;;;;;;5077885;28;987;-37
2022/01/11 03:44:04;;;;;;;;;;;23.00;51.50;;;;;;5078298;28;1126;-36
2022/01/11 03:46:31;;;;;;;;;;;23.00;51.60;;;;;;5077668;28;984;-36
2022/01/11 03:48:59;;;;;;;;;;;23.00;51.60;;;;;;5077676;28;1456;-38
2022/01/11 03:51:26;;;;;;;;;;;22.90;52.80;;;;;;5078433;28;1011;-37
2022/01/11 03:54:00;;;;;;;;;;;23.00;51.80;;;;;;5078767;28;923;-37
2022/01/11 03:56:26;;;;;;;;;;;22.90;51.80;;;;;;5078058;28;939;-36
2022/01/11 03:58:54;;;;;;;;;;;22.90;51.60;;;;;;5077992;28;1977;-36
2022/01/11 04:01:21;;;;;;;;;;;22.90;51.70;;;;;;5078371;28;915;-36
2022/01/11 04:03:48;;;;;;;;;;;22.90;51.80;;;;;;5077983;28;1010;-36
2022/01/11 04:06:16;;;;;;;;;;;22.90;51.80;;;;;;5077942;28;970;-36
2022/01/11 04:08:44;;;;;;;;;;;22.90;51.80;;;;;;5077982;28;1026;-35
2022/01/11 04:11:11;;;;;;;;;;;22.90;51.80;;;;;;5077584;28;947;-36
2022/01/11 04:13:38;;;;;;;;;;;22.80;51.80;;;;;;5077865;28;1027;-35
2022/01/11 04:16:05;;;;;;;;;;;22.80;51.70;;;;;;5079855;28;980;-38
2022/01/11 04:18:32;;;;;;;;;;;22.80;51.90;;;;;;5081793;28;927;-37
2022/01/11 04:20:59;;;;;;;;;;;22.80;51.80;;;;;;5081060;28;1949;-37
2022/01/11 04:23:27;;;;;;;;;;;22.80;51.90;;;;;;5080770;28;1013;-35
2022/01/11 04:25:54;;;;;;;;;;;22.80;51.80;;;;;;5081496;28;1155;-36
2022/01/11 04:28:23;;;;;;;;;;;22.80;51.90;;;;;;5081479;28;975;-36
2022/01/11 04:30:49;;;;;;;;;;;22.80;51.70;;;;;;5081539;28;1003;-36
2022/01/11 04:33:16;;;;;;;;;;;22.80;51.60;;;;;;5081052;28;988;-36
2022/01/11 04:35:48;;;;;;;;;;;22.90;51.60;;;;;;5081218;28;912;-36
2022/01/11 04:38:15;;;;;;;;;;;22.90;51.60;;;;;;5081244;28;1438;-38
2022/01/11 04:40:44;;;;;;;;;;;22.90;51.60;;;;;;5081036;28;1894;-36
2022/01/11 04:43:10;;;;;;;;;;;22.90;51.60;;;;;;5080520;28;1020;-36
2022/01/11 04:45:37;;;;;;;;;;;22.90;51.60;;;;;;5080736;28;951;-37
2022/01/11 04:48:05;;;;;;;;;;;22.90;51.60;;;;;;5080929;28;1012;-37
2022/01/11 04:50:32;;;;;;;;;;;22.90;51.40;;;;;;5080465;28;932;-37
2022/01/11 04:52:59;;;;;;;;;;;22.90;51.40;;;;;;5080528;28;949;-37
2022/01/11 04:55:26;;;;;;;;;;;23.00;51.50;;;;;;5080363;28;1030;-38
2022/01/11 04:57:54;;;;;;;;;;;23.00;51.40;;;;;;5079908;28;1793;-37
2022/01/11 05:00:22;;;;;;;;;;;23.00;51.40;;;;;;5080111;28;1906;-37
2022/01/11 05:02:49;;;;;;;;;;;23.00;51.40;;;;;;5080234;28;960;-36
2022/01/11 05:05:16;;;;;;;;;;;23.00;51.70;;;;;;5079898;28;1006;-35
2022/01/11 05:07:42;;;;;;;;;;;23.00;51.50;;;;;;5079706;28;1021;-36
2022/01/11 05:10:10;;;;;;;;;;;23.00;51.50;;;;;;5080542;28;969;-36
2022/01/11 05:12:38;;;;;;;;;;;23.00;51.50;;;;;;5080217;28;1018;-36
2022/01/11 05:15:07;;;;;;;;;;;23.00;51.50;;;;;;5080400;28;1042;-36
2022/01/11 05:17:34;;;;;;;;;;;22.90;51.40;;;;;;5080071;28;974;-36
2022/01/11 05:20:01;;;;;;;;;;;22.90;51.50;;;;;;5079404;28;1902;-36
2022/01/11 05:22:28;;;;;;;;;;;22.90;51.30;;;;;;5080556;28;998;-37
2022/01/11 05:24:55;;;;;;;;;;;23.00;51.30;;;;;;5079662;28;950;-38
2022/01/11 05:27:21;;;;;;;;;;;23.00;51.20;;;;;;5079656;28;904;-36
2022/01/11 05:29:48;;;;;;;;;;;23.00;51.30;;;;;;5079748;28;881;-37
2022/01/11 05:32:16;;;;;;;;;;;23.00;51.30;;;;;;5078915;28;987;-36
2022/01/11 05:34:43;;;;;;;;;;;23.00;51.40;;;;;;5079221;28;923;-38
2022/01/11 05:37:09;;;;;;;;;;;23.00;51.30;;;;;;5079275;28;999;-36
2022/01/11 05:39:37;;;;;;;;;;;23.00;51.20;;;;;;5078304;28;2024;-37
2022/01/11 05:42:06;;;;;;;;;;;23.00;51.30;;;;;;5078353;28;1053;-36
2022/01/11 05:44:33;;;;;;;;;;;23.00;51.20;;;;;;5078539;28;987;-37
2022/01/11 05:46:59;;;;;;;;;;;23.00;51.20;;;;;;5078102;28;1024;-36
2022/01/11 05:49:27;;;;;;;;;;;22.90;51.20;;;;;;5079137;28;1047;-36
2022/01/11 05:51:54;;;;;;;;;;;22.90;51.20;;;;;;5078456;28;1004;-36
2022/01/11 05:54:21;;;;;;;;;;;22.90;51.10;;;;;;5078413;28;999;-37
2022/01/11 05:56:50;;;;;;;;;;;22.90;51.20;;;;;;5078419;28;946;-36
2022/01/11 05:59:16;;;;;;;;;;;22.90;51.20;;;;;;5078309;28;1014;-36
2022/01/11 06:01:43;;;;;;;;;;;22.90;51.10;;;;;;5078178;28;1894;-35
2022/01/11 06:04:10;;;;;;;;;;;22.90;51.10;;;;;;5078107;28;994;-37
2022/01/11 06:06:38;;;;;;;;;;;22.90;51.10;;;;;;5078232;28;915;-36
2022/01/11 06:09:05;;;;;;;;;;;22.90;51.20;;;;;;5076584;28;992;-37
2022/01/11 06:11:31;;;;;;;;;;;22.90;51.30;;;;;;5077872;28;1038;-37
2022/01/11 06:13:58;;;;;;;;;;;22.80;51.20;;;;;;5077191;28;1003;-35
2022/01/11 06:16:25;;;;;;;;;;;22.90;51.50;;;;;;5077626;28;892;-35
2022/01/11 06:18:52;;;;;;;;;;;22.90;51.10;;;;;;5077406;28;974;-36
2022/01/11 06:21:19;;;;;;;;;;;22.80;51.10;;;;;;5077471;28;1901;-35
2022/01/11 06:23:47;;;;;;;;;;;22.90;51.20;;;;;;5077185;28;998;-35
2022/01/11 06:26:14;;;;;;;;;;;22.80;51.20;;;;;;5076367;28;938;-35
2022/01/11 06:28:41;;;;;;;;;;;22.90;51.30;;;;;;5077031;28;966;-37
2022/01/11 06:31:08;;;;;;;;;;;22.80;51.20;;;;;;5076042;28;1042;-36
2022/01/11 06:33:35;;;;;;;;;;;22.80;51.50;;;;;;5075962;28;986;-36
2022/01/11 06:36:02;;;;;;;;;;;22.70;51.50;;;;;;5077001;28;923;-36
2022/01/11 06:38:29;;;;;;;;;;;22.70;51.60;;;;;;5077145;28;969;-35
2022/01/11 06:40:57;;;;;;;;;;;22.80;51.60;;;;;;5087526;28;1902;-36
2022/01/11 06:43:24;;;;;;;;;;;22.80;51.60;;;;;;5097159;28;1043;-36
2022/01/11 06:45:50;;;;;;;;;;;22.80;51.60;;;;;;5098418;28;785;-36
2022/01/11 06:48:17;;;;;;;;;;;22.70;51.50;;;;;;5097496;28;1476;-36
2022/01/11 06:50:44;;;;;;;;;;;22.80;51.60;;;;;;5097744;28;1110;-36
2022/01/11 06:53:11;;;;;;;;;;;22.80;51.80;;;;;;5096931;28;981;-36
2022/01/11 06:55:38;;;;;;;;;;;22.90;52.00;;;;;;5097067;28;1016;-36
2022/01/11 06:58:07;;;;;;;;;;;22.90;51.60;;;;;;5097617;28;917;-36
2022/01/11 07:00:34;;;;;;;;;;;22.90;51.60;;;;;;5096737;28;1910;-36
2022/01/11 07:03:00;;;;;;;;;;;23.00;51.60;;;;;;5096530;28;1014;-35
2022/01/11 07:05:27;;;;;;;;;;;23.00;51.50;;;;;;5096904;28;1000;-36
2022/01/11 07:07:54;;;;;;;;;;;22.90;51.60;;;;;;5097134;28;1011;-38
2022/01/11 07:10:21;;;;;;;;;;;23.00;51.60;;;;;;5097693;28;1003;-39
2022/01/11 07:12:47;;;;;;;;;;;23.00;51.60;;;;;;5097212;28;943;-36
2022/01/11 07:15:15;;;;;;;;;;;23.00;51.70;;;;;;5097079;28;972;-37
2022/01/11 07:17:43;;;;;;;;;;;23.00;51.60;;;;;;5096487;28;1023;-36
2022/01/11 07:20:10;;;;;;;;;;;22.90;51.80;;;;;;5095478;28;1906;-36
2022/01/11 07:22:37;;;;;;;;;;;22.80;51.90;;;;;;5097135;28;1020;-36
2022/01/11 07:25:04;;;;;;;;;;;22.80;51.90;;;;;;5097724;28;1014;-37
2022/01/11 07:27:31;;;;;;;;;;;22.80;51.90;;;;;;5096886;28;1016;-36
2022/01/11 07:29:58;;;;;;;;;;;22.80;51.90;;;;;;5096543;28;932;-37
2022/01/11 07:32:26;;;;;;;;;;;22.80;51.90;;;;;;5096128;28;2196;-36
2022/01/11 07:34:53;;;;;;;;;;;22.80;51.80;;;;;;5095888;28;1059;-37
2022/01/11 07:37:20;;;;;;;;;;;22.80;51.90;;;;;;5096796;28;1059;-37
2022/01/11 07:39:47;;;;;;;;;;;22.80;51.80;;;;;;5097466;28;1170;-36
2022/01/11 07:42:13;;;;;;;;;;;22.70;51.80;;;;;;5097330;28;1976;-37
2022/01/11 07:44:40;;;;;;;;;;;22.70;51.90;;;;;;5096403;28;976;-39
2022/01/11 07:47:07;;;;;;;;;;;22.70;51.80;;;;;;5095993;28;1019;-36
2022/01/11 07:49:35;;;;;;;;;;;22.70;51.70;;;;;;5095117;28;1035;-36
2022/01/11 07:52:02;;;;;;;;;;;22.80;51.70;;;;;;5101341;28;936;-36
2022/01/11 07:54:28;;;;;;;;;;;22.70;51.80;;;;;;5101386;28;963;-36
2022/01/11 07:56:55;;;;;;;;;;;22.70;51.70;;;;;;5100216;28;980;-36
2022/01/11 07:59:22;;;;;;;;;;;22.70;51.60;;;;;;5099821;28;1004;-36
2022/01/11 08:01:48;;;;;;;;;;;22.80;51.50;;;;;;5100931;28;1901;-36
2022/01/11 08:04:15;;;;;;;;;;;22.70;51.50;;;;;;5101222;28;980;-36
2022/01/11 08:06:43;;;;;;;;;;;22.80;51.30;;;;;;5100388;28;1027;-37
2022/01/11 08:09:10;;;;;;;;;;;22.70;51.30;;;;;;5100484;28;885;-37
2022/01/11 08:11:37;;;;;;;;;;;22.80;51.20;;;;;;5100572;28;984;-36
2022/01/11 08:14:04;;;;;;;;;;;22.80;51.20;;;;;;5099820;28;940;-36
2022/01/11 08:16:30;;;;;;;;;;;22.80;51.20;;;;;;5100514;28;1004;-36
2022/01/11 08:18:57;;;;;;;;;;;22.80;51.20;;;;;;5100883;28;1001;-36
2022/01/11 08:21:24;;;;;;;;;;;22.70;51.30;;;;;;5099983;28;1905;-37
2022/01/11 08:23:52;;;;;;;;;;;22.70;51.20;;;;;;5099430;28;1000;-37
2022/01/11 08:26:19;;;;;;;;;;;22.70;51.10;;;;;;5100143;28;937;-37
2022/01/11 08:28:45;;;;;;;;;;;22.70;51.20;;;;;;5099464;28;1016;-36
2022/01/11 08:31:12;;;;;;;;;;;22.70;51.20;;;;;;5099185;28;921;-36
2022/01/11 08:33:39;;;;;;;;;;;22.70;51.10;;;;;;5100605;28;1106;-36
2022/01/11 08:36:06;;;;;;;;;;;22.70;51.10;;;;;;5099493;28;968;-36
2022/01/11 08:38:33;;;;;;;;;;;22.70;51.10;;;;;;5099675;28;1093;-37
2022/01/11 08:41:01;;;;;;;;;;;22.60;51.10;;;;;;5099391;28;1902;-37
2022/01/11 08:43:28;;;;;;;;;;;22.60;51.00;;;;;;5100439;28;1080;-36
2022/01/11 08:45:55;;;;;;;;;;;22.60;51.00;;;;;;5099834;28;1009;-37
2022/01/11 08:48:22;;;;;;;;;;;22.60;51.00;;;;;;5100186;28;978;-36
2022/01/11 08:50:52;;;;;;;;;;;22.60;51.10;;;;;;5098234;28;1327;-36
2022/01/11 08:53:19;;;;;;;;;;;22.60;51.00;;;;;;5101298;28;998;-36
2022/01/11 08:55:46;;;;;;;;;;;22.60;51.00;;;;;;5100488;28;1011;-36
2022/01/11 08:58:14;;;;;;;;;;;22.60;51.00;;;;;;5100726;28;936;-36
2022/01/11 09:00:41;;;;;;;;;;;22.60;50.90;;;;;;5098859;28;1910;-37
2022/01/11 09:03:08;;;;;;;;;;;22.60;51.00;;;;;;5099331;28;1117;-37
2022/01/11 09:05:35;;;;;;;;;;;22.50;50.90;;;;;;5098796;28;948;-36
2022/01/11 09:08:02;;;;;;;;;;;22.50;51.00;;;;;;5099573;28;1048;-36
2022/01/11 09:10:28;;;;;;;;;;;22.50;50.90;;;;;;5099287;28;1014;-36
2022/01/11 09:12:55;;;;;;;;;;;22.60;51.00;;;;;;5098579;28;1012;-37
2022/01/11 09:15:23;;;;;;;;;;;22.50;51.00;;;;;;5098135;28;660;-36
2022/01/11 09:17:50;;;;;;;;;;;22.50;50.90;;;;;;5098653;28;948;-35
2022/01/11 09:20:17;;;;;;;;;;;22.50;50.90;;;;;;5097884;28;1007;-36
2022/01/11 09:22:44;;;;;;;;;;;22.50;50.90;;;;;;5099457;28;1914;-36
2022/01/11 09:25:12;;;;;;;;;;;22.50;50.90;;;;;;5099027;28;1018;-36
2022/01/11 09:27:39;;;;;;;;;;;22.50;51.00;;;;;;5099113;28;1059;-36
2022/01/11 09:30:08;;;;;;;;;;;22.40;50.90;;;;;;5098935;28;979;-36
2022/01/11 09:32:37;;;;;;;;;;;22.50;51.00;;;;;;5099667;28;996;-37
2022/01/11 09:35:04;;;;;;;;;;;22.50;51.00;;;;;;5098798;28;944;-36
2022/01/11 09:37:31;;;;;;;;;;;22.40;50.90;;;;;;5099058;28;1114;-36
2022/01/11 09:39:58;;;;;;;;;;;22.40;50.90;;;;;;5099514;28;964;-36
2022/01/11 09:42:25;;;;;;;;;;;22.50;51.00;;;;;;5098242;28;1914;-35
2022/01/11 09:44:52;;;;;;;;;;;22.40;50.80;;;;;;5098212;28;991;-34
2022/01/11 09:47:19;;;;;;;;;;;22.40;50.90;;;;;;5098353;28;955;-33
2022/01/11 09:49:47;;;;;;;;;;;22.40;50.90;;;;;;5098485;28;991;-34
2022/01/11 09:52:14;;;;;;;;;;;22.40;50.80;;;;;;5098731;28;968;-33
2022/01/11 09:54:42;;;;;;;;;;;22.40;50.90;;;;;;5098131;28;1032;-34
2022/01/11 09:57:09;;;;;;;;;;;22.40;50.90;;;;;;5098041;28;1004;-34
2022/01/11 09:59:36;;;;;;;;;;;22.40;50.80;;;;;;5097945;28;915;-34
2022/01/11 10:02:04;;;;;;;;;;;22.40;50.90;;;;;;5097417;28;1976;-34
2022/01/11 10:04:32;;;;;;;;;;;22.30;50.90;;;;;;5098119;28;958;-34
2022/01/11 10:07:02;;;;;;;;;;;22.40;50.80;;;;;;5097013;28;1016;-35
2022/01/11 10:09:30;;;;;;;;;;;22.40;50.80;;;;;;5098490;28;945;-36
2022/01/11 10:11:57;;;;;;;;;;;22.40;50.80;;;;;;5098138;28;1003;-34
2022/01/11 10:14:26;;;;;;;;;;;22.40;50.80;;;;;;5096743;28;996;-35
2022/01/11 10:17:05;;;;;;;;;;;22.40;50.90;;;;;;5097250;28;1019;-34
2022/01/11 10:19:32;;;;;;;;;;;22.40;50.90;;;;;;5097441;28;932;-34
2022/01/11 10:22:02;;;;;;;;;;;22.40;50.80;;;;;;5097574;28;1981;-33
2022/01/11 10:24:32;;;;;;;;;;;22.30;50.80;;;;;;5097479;28;1008;-35
2022/01/11 10:27:00;;;;;;;;;;;22.30;50.90;;;;;;5097935;28;996;-34
2022/01/11 10:29:28;;;;;;;;;;;22.30;50.80;;;;;;5096806;28;909;-34
2022/01/11 10:31:56;;;;;;;;;;;22.30;50.80;;;;;;5097150;28;988;-34
2022/01/11 10:34:27;;;;;;;;;;;22.30;50.80;;;;;;5096675;28;1405;-34
2022/01/11 10:36:54;;;;;;;;;;;22.30;50.90;;;;;;5097317;28;1021;-34
2022/01/11 10:39:30;;;;;;;;;;;22.30;50.80;;;;;;5096106;28;1149;-33
2022/01/11 10:41:57;;;;;;;;;;;22.30;50.80;;;;;;5097655;28;1990;-34
2022/01/11 10:44:44;;;;;;;;;;;22.30;50.90;;;;;;5097066;28;1026;-33
2022/01/11 10:47:10;;;;;;;;;;;22.30;50.90;;;;;;5097284;28;972;-34
2022/01/11 10:49:37;;;;;;;;;;;22.30;52.00;;;;;;5097128;28;952;-34
2022/01/11 10:52:21;;;;;;;;;;;22.30;50.90;;;;;;5097104;28;1027;-34
2022/01/11 10:54:50;;;;;;;;;;;22.30;50.90;;;;;;5097281;28;1015;-33
2022/01/11 10:57:18;;;;;;;;;;;22.30;51.00;;;;;;5097550;28;1074;-33
2022/01/11 11:00:03;;;;;;;;;;;22.30;50.90;;;;;;5096024;28;1007;-35
2022/01/11 11:02:30;;;;;;;;;;;22.30;50.90;;;;;;5096537;28;1988;-34
2022/01/11 11:04:58;;;;;;;;;;;22.30;50.90;;;;;;5097184;28;1038;-33
2022/01/11 11:07:26;;;;;;;;;;;22.30;50.90;;;;;;5096974;28;931;-34
2022/01/11 11:09:54;;;;;;;;;;;22.30;51.00;;;;;;5096491;28;983;-34
2022/01/11 11:12:23;;;;;;;;;;;22.30;50.90;;;;;;5096886;28;998;-33
2022/01/11 11:14:50;;;;;;;;;;;22.30;51.00;;;;;;5095268;28;1010;-33
2022/01/11 11:17:30;;;;;;;;;;;22.20;50.90;;;;;;5095941;28;1005;-33
2022/01/11 11:19:59;;;;;;;;;;;22.30;50.90;;;;;;5096891;28;948;-35
2022/01/11 11:22:26;;;;;;;;;;;22.20;50.90;;;;;;5096448;28;1984;-34
2022/01/11 11:24:54;;;;;;;;;;;22.20;50.90;;;;;;5096466;28;1003;-34
2022/01/11 11:27:22;;;;;;;;;;;22.20;50.90;;;;;;5097028;28;968;-34
2022/01/11 11:29:49;;;;;;;;;;;22.20;51.00;;;;;;5096135;28;927;-34
2022/01/11 11:32:17;;;;;;;;;;;22.20;50.90;;;;;;5095451;28;1001;-36
2022/01/11 11:34:48;;;;;;;;;;;22.20;50.80;;;;;;5095664;28;865;-34
2022/01/11 11:37:17;;;;;;;;;;;22.20;50.90;;;;;;5096397;28;1117;-33
2022/01/11 11:39:45;;;;;;;;;;;22.20;51.00;;;;;;5095037;28;1003;-33
2022/01/11 11:42:16;;;;;;;;;;;22.20;50.90;;;;;;5094592;28;1975;-35
2022/01/11 11:44:44;;;;;;;;;;;22.20;50.80;;;;;;5093916;28;1019;-34
2022/01/11 11:47:11;;;;;;;;;;;22.20;50.90;;;;;;5094379;28;1017;-33
2022/01/11 11:49:44;;;;;;;;;;;22.20;50.80;;;;;;5094143;28;1008;-34
2022/01/11 11:52:21;;;;;;;;;;;22.20;50.80;;;;;;5094979;28;1017;-33
2022/01/11 11:54:49;;;;;;;;;;;22.20;50.80;;;;;;5094559;28;1042;-34
2022/01/11 11:57:18;;;;;;;;;;;22.20;50.90;;;;;;5094763;28;996;-34
2022/01/11 11:59:50;;;;;;;;;;;22.20;50.90;;;;;;5093123;28;931;-34
2022/01/11 12:02:30;;;;;;;;;;;22.20;50.90;;;;;;5091633;28;1922;-33
2022/01/11 12:04:56;;;;;;;;;;;22.20;50.90;;;;;;5092299;28;1003;-35
2022/01/11 12:07:32;;;;;;;;;;;22.20;50.90;;;;;;5093346;28;904;-34
2022/01/11 12:09:59;;;;;;;;;;;22.20;50.80;;;;;;5092547;28;942;-34
2022/01/11 12:12:43;;;;;;;;;;;22.20;50.90;;;;;;5093005;28;940;-34
2022/01/11 12:15:31;;;;;;;;;;;22.10;50.90;;;;;;5092703;28;980;-36
2022/01/11 12:18:17;;;;;;;;;;;22.10;50.90;;;;;;5092597;28;1018;-34
2022/01/11 12:20:49;;;;;;;;;;;22.10;50.90;;;;;;5093221;28;888;-34
2022/01/11 12:23:20;;;;;;;;;;;22.10;50.90;;;;;;5092994;28;1910;-34
2022/01/11 12:25:50;;;;;;;;;;;22.10;50.90;;;;;;5093015;28;1008;-34
2022/01/11 12:28:20;;;;;;;;;;;22.10;50.90;;;;;;5092333;28;931;-33
2022/01/11 12:30:46;;;;;;;;;;;22.10;50.80;;;;;;5092395;28;1011;-33
2022/01/11 12:33:14;;;;;;;;;;;22.10;50.80;;;;;;5093211;28;1027;-34
2022/01/11 12:35:52;;;;;;;;;;;22.10;50.90;;;;;;5093065;28;992;-34
2022/01/11 12:38:19;;;;;;;;;;;22.10;50.90;;;;;;5096739;28;1095;-33
2022/01/11 12:40:47;;;;;;;;;;;22.10;50.80;;;;;;5097851;28;1020;-34
2022/01/11 12:43:19;;;;;;;;;;;22.10;50.90;;;;;;5097690;28;1902;-33
2022/01/11 12:45:58;;;;;;;;;;;22.10;50.90;;;;;;5097211;28;1031;-35
2022/01/11 12:48:44;;;;;;;;;;;22.10;50.90;;;;;;5095701;28;1114;-34
2022/01/11 12:51:10;;;;;;;;;;;22.10;50.80;;;;;;5096669;28;1028;-34
2022/01/11 12:53:37;;;;;;;;;;;22.10;50.90;;;;;;5096406;28;1010;-34
2022/01/11 12:56:04;;;;;;;;;;;22.10;51.00;;;;;;5096034;28;936;-34
2022/01/11 12:58:31;;;;;;;;;;;22.10;51.00;;;;;;5096714;28;995;-34
2022/01/11 13:00:59;;;;;;;;;;;22.00;50.90;;;;;;5096451;28;935;-36
2022/01/11 13:03:26;;;;;;;;;;;22.10;51.00;;;;;;5096938;28;1922;-34
2022/01/11 13:05:54;;;;;;;;;;;22.10;51.00;;;;;;5097140;28;971;-34
2022/01/11 13:08:27;;;;;;;;;;;22.10;50.90;;;;;;5097334;28;1007;-34
2022/01/11 13:10:53;;;;;;;;;;;22.10;50.90;;;;;;5098153;28;1035;-34
2022/01/11 13:13:23;;;;;;;;;;;22.10;50.90;;;;;;5097663;28;996;-34
2022/01/11 13:15:50;;;;;;;;;;;22.00;50.80;;;;;;5097239;28;1011;-33
2022/01/11 13:18:19;;;;;;;;;;;22.00;50.80;;;;;;5096504;28;998;-33
2022/01/11 13:20:46;;;;;;;;;;;22.00;50.80;;;;;;5097038;28;963;-34
2022/01/11 13:23:16;;;;;;;;;;;22.00;50.80;;;;;;5097394;28;1987;-34
2022/01/11 13:25:45;;;;;;;;;;;22.00;51.00;;;;;;5097153;28;971;-34
2022/01/11 13:28:12;;;;;;;;;;;22.00;50.80;;;;;;5096638;28;1153;-33
2022/01/11 13:30:40;;;;;;;;;;;22.00;50.90;;;;;;5096424;28;927;-34
2022/01/11 13:33:07;;;;;;;;;;;22.00;51.00;;;;;;5096529;28;984;-34
2022/01/11 13:35:35;;;;;;;;;;;22.00;51.00;;;;;;5097082;28;1859;-35
2022/01/11 13:38:12;;;;;;;;;;;22.00;51.00;;;;;;5096968;28;1251;-34
2022/01/11 13:40:40;;;;;;;;;;;22.00;50.90;;;;;;5097053;28;984;-33
2022/01/11 13:43:09;;;;;;;;;;;22.00;50.90;;;;;;5096287;28;1984;-33
2022/01/11 13:45:36;;;;;;;;;;;22.00;50.90;;;;;;5096372;28;916;-33
2022/01/11 13:48:13;;;;;;;;;;;22.00;51.00;;;;;;5096922;28;929;-34
2022/01/11 13:50:48;;;;;;;;;;;22.00;51.00;;;;;;5095935;28;939;-34
2022/01/11 13:53:23;;;;;;;;;;;22.00;51.20;;;;;;5096025;28;1010;-34
2022/01/11 13:55:51;;;;;;;;;;;22.00;51.10;;;;;;5095818;28;932;-34
2022/01/11 13:58:18;;;;;;;;;;;22.00;51.00;;;;;;5095912;28;1008;-35
2022/01/11 14:00:45;;;;;;;;;;;22.00;51.10;;;;;;5095954;28;990;-35
2022/01/11 14:03:12;;;;;;;;;;;22.00;51.00;;;;;;5094458;28;1965;-34
2022/01/11 14:05:39;;;;;;;;;;;22.00;51.10;;;;;;5096362;28;894;-34
2022/01/11 14:08:10;;;;;;;;;;;22.00;51.10;;;;;;5095716;28;1182;-36
2022/01/11 14:10:37;;;;;;;;;;;22.00;51.10;;;;;;5095993;28;1040;-38
2022/01/11 14:13:06;;;;;;;;;;;21.90;51.10;;;;;;5095961;28;994;-34
2022/01/11 14:15:33;;;;;;;;;;;22.00;51.10;;;;;;5096131;28;889;-34
2022/01/11 14:18:00;;;;;;;;;;;22.00;51.20;;;;;;5096873;28;980;-34
2022/01/11 14:20:27;;;;;;;;;;;22.00;51.20;;;;;;5095457;28;1036;-35
2022/01/11 14:22:55;;;;;;;;;;;22.00;51.20;;;;;;5095381;28;1897;-34
2022/01/11 14:25:25;;;;;;;;;;;22.00;51.00;;;;;;5094705;28;928;-35
2022/01/11 14:27:59;;;;;;;;;;;22.00;51.00;;;;;;5095864;28;976;-33
2022/01/11 14:30:33;;;;;;;;;;;22.00;51.00;;;;;;5095024;28;873;-34
2022/01/11 14:32:59;;;;;;;;;;;22.00;51.00;;;;;;5095578;28;986;-34
2022/01/11 14:35:27;;;;;;;;;;;22.00;51.00;;;;;;5097187;28;2096;-35
2022/01/11 14:38:00;;;;;;;;;;;22.00;50.90;;;;;;5096019;28;966;-34
2022/01/11 14:40:29;;;;;;;;;;;22.00;50.90;;;;;;5096610;28;1007;-34
2022/01/11 14:43:07;;;;;;;;;;;22.00;50.90;;;;;;5096473;28;1968;-34
2022/01/11 14:45:37;;;;;;;;;;;22.00;50.80;;;;;;5096642;28;1432;-34
2022/01/11 14:48:04;;;;;;;;;;;22.00;50.60;;;;;;5095435;28;960;-33